createdAt,value
2018-11-05T00:00:39.155Z,8.80
2018-11-05T00:03:07.271Z,8.90
2018-11-05T00:05:35.153Z,8.90
2018-11-05T00:08:03.043Z,8.90
2018-11-05T00:10:30.813Z,9.00
2018-11-05T00:12:58.608Z,9.00
2018-11-05T00:15:26.404Z,8.90
2018-11-05T00:17:54.170Z,8.80
2018-11-05T00:20:21.942Z,8.90
2018-11-05T00:22:49.693Z,8.80
2018-11-05T00:25:18.224Z,8.80
2018-11-05T00:27:46.013Z,8.80
2018-11-05T00:30:14.549Z,8.80
2018-11-05T00:32:42.797Z,8.80
2018-11-05T00:35:10.727Z,8.70
2018-11-05T00:37:38.511Z,8.70
2018-11-05T00:40:07.473Z,8.70
2018-11-05T00:42:35.308Z,8.70
2018-11-05T00:45:03.126Z,8.70
2018-11-05T00:47:30.875Z,8.70
2018-11-05T00:49:58.638Z,8.70
2018-11-05T00:52:26.375Z,8.70
2018-11-05T00:54:54.137Z,8.80
2018-11-05T00:57:21.909Z,8.70
2018-11-05T00:59:49.685Z,8.60
2018-11-05T01:02:17.725Z,8.60
2018-11-05T01:04:45.514Z,8.60
2018-11-05T01:07:13.249Z,8.60
2018-11-05T01:09:40.941Z,8.60
2018-11-05T01:12:08.673Z,8.60
2018-11-05T01:14:36.419Z,8.70
2018-11-05T01:17:04.183Z,8.60
2018-11-05T01:19:31.877Z,8.60
2018-11-05T01:21:59.601Z,8.60
2018-11-05T01:24:27.298Z,8.60
2018-11-05T01:26:55.029Z,8.60
2018-11-05T01:29:22.994Z,8.50
2018-11-05T01:31:50.726Z,8.40
2018-11-05T01:34:19.955Z,8.30
2018-11-05T01:36:47.844Z,8.30
2018-11-05T01:39:15.524Z,8.30
2018-11-05T01:41:43.263Z,8.40
2018-11-05T01:44:11.955Z,8.50
2018-11-05T01:46:39.705Z,8.50
2018-11-05T01:49:07.438Z,8.40
2018-11-05T01:51:35.168Z,8.30
2018-11-05T01:54:02.927Z,8.40
2018-11-05T01:56:30.657Z,8.40
2018-11-05T01:58:58.355Z,8.40
2018-11-05T02:01:26.189Z,8.40
2018-11-05T02:03:53.909Z,8.40
2018-11-05T02:06:21.678Z,8.50
2018-11-05T02:08:49.397Z,8.60
2018-11-05T02:11:17.142Z,8.50
2018-11-05T02:13:44.862Z,8.50
2018-11-05T02:16:12.736Z,8.60
2018-11-05T02:18:40.382Z,8.60
2018-11-05T02:21:08.153Z,8.60
2018-11-05T02:23:35.857Z,8.70
2018-11-05T02:26:03.690Z,8.70
2018-11-05T02:28:31.473Z,8.60
2018-11-05T02:30:59.169Z,8.70
2018-11-05T02:33:26.957Z,8.70
2018-11-05T02:35:54.668Z,8.60
2018-11-05T02:38:22.397Z,8.60
2018-11-05T02:40:50.115Z,8.60
2018-11-05T02:43:17.853Z,8.60
2018-11-05T02:45:45.567Z,8.60
2018-11-05T02:48:13.307Z,8.60
2018-11-05T02:50:41.113Z,8.60
2018-11-05T02:53:08.838Z,8.60
2018-11-05T02:55:37.109Z,8.70
2018-11-05T02:58:04.931Z,8.70
2018-11-05T03:00:33.333Z,8.50
2018-11-05T03:03:01.157Z,8.50
2018-11-05T03:08:03.033Z,8.60
2018-11-05T03:10:30.796Z,8.60
2018-11-05T03:12:58.565Z,8.60
2018-11-05T03:15:26.325Z,8.50
2018-11-05T03:17:54.013Z,8.50
2018-11-05T03:20:21.746Z,8.50
2018-11-05T03:22:49.445Z,8.60
2018-11-05T03:25:17.187Z,8.70
2018-11-05T03:27:44.921Z,8.70
2018-11-05T03:30:14.597Z,8.70
2018-11-05T03:32:42.484Z,8.70
2018-11-05T03:35:11.378Z,8.60
2018-11-05T03:37:39.820Z,8.60
2018-11-05T03:40:07.977Z,8.60
2018-11-05T03:42:35.701Z,8.50
2018-11-05T03:45:03.540Z,8.60
2018-11-05T03:47:31.302Z,8.70
2018-11-05T03:49:59.421Z,8.60
2018-11-05T03:52:27.145Z,8.60
2018-11-05T03:54:54.845Z,8.70
2018-11-05T03:57:22.578Z,8.60
2018-11-05T03:59:50.281Z,8.60
2018-11-05T04:02:18.033Z,8.60
2018-11-05T04:04:45.733Z,8.60
2018-11-05T04:07:13.473Z,8.60
2018-11-05T04:09:41.180Z,8.60
2018-11-05T04:12:09.053Z,8.60
2018-11-05T04:14:37.286Z,8.70
2018-11-05T04:17:05.289Z,8.70
2018-11-05T04:19:33.029Z,8.70
2018-11-05T04:22:00.746Z,8.70
2018-11-05T04:24:30.038Z,8.70
2018-11-05T04:29:31.917Z,8.80
2018-11-05T04:31:59.626Z,8.80
2018-11-05T04:34:27.362Z,8.70
2018-11-05T04:36:55.061Z,8.70
2018-11-05T04:39:22.798Z,8.70
2018-11-05T04:41:50.506Z,8.70
2018-11-05T04:44:18.241Z,8.60
2018-11-05T04:46:46.005Z,8.70
2018-11-05T04:49:13.741Z,8.70
2018-11-05T04:51:41.450Z,8.60
2018-11-05T04:54:09.214Z,8.70
2018-11-05T04:56:36.965Z,8.70
2018-11-05T04:59:05.150Z,8.70
2018-11-05T05:01:32.863Z,8.80
2018-11-05T05:04:00.651Z,8.70
2018-11-05T05:06:29.103Z,8.70
2018-11-05T05:08:56.914Z,8.80
2018-11-05T05:11:24.768Z,8.80
2018-11-05T05:13:52.729Z,8.70
2018-11-05T05:16:20.553Z,8.70
2018-11-05T05:18:48.173Z,8.80
2018-11-05T05:21:15.906Z,8.80
2018-11-05T05:23:43.623Z,8.80
2018-11-05T05:26:11.373Z,8.80
2018-11-05T05:28:39.145Z,8.80
2018-11-05T05:31:07.329Z,8.80
2018-11-05T05:33:35.391Z,8.70
2018-11-05T05:36:03.522Z,8.80
2018-11-05T05:38:31.238Z,8.90
2018-11-05T05:40:59.150Z,9.00
2018-11-05T05:43:26.716Z,9.00
2018-11-05T05:45:54.477Z,9.00
2018-11-05T05:48:22.217Z,9.00
2018-11-05T05:50:49.921Z,9.00
2018-11-05T05:53:17.671Z,9.10
2018-11-05T05:55:45.689Z,9.00
2018-11-05T05:58:13.481Z,9.00
2018-11-05T06:00:41.187Z,9.10
2018-11-05T06:03:16.030Z,9.10
2018-11-05T06:05:45.310Z,9.10
2018-11-05T06:08:13.094Z,9.10
2018-11-05T06:10:40.833Z,9.00
2018-11-05T06:13:08.643Z,9.00
2018-11-05T06:15:36.364Z,9.00
2018-11-05T06:18:04.518Z,8.90
2018-11-05T06:20:32.464Z,9.00
2018-11-05T06:23:00.202Z,9.00
2018-11-05T06:25:27.918Z,9.00
2018-11-05T06:27:56.286Z,9.00
2018-11-05T06:30:23.996Z,9.00
2018-11-05T06:32:52.194Z,8.90
2018-11-05T06:35:20.618Z,9.00
2018-11-05T06:37:48.408Z,8.90
2018-11-05T06:40:17.169Z,8.80
2018-11-05T06:42:45.359Z,8.80
2018-11-05T06:45:14.353Z,8.80
2018-11-05T06:47:43.036Z,8.90
2018-11-05T06:50:12.388Z,8.90
2018-11-05T06:52:40.629Z,8.90
2018-11-05T06:55:09.331Z,9.00
2018-11-05T06:57:37.316Z,9.00
2018-11-05T07:00:05.946Z,9.00
2018-11-05T07:02:33.702Z,9.00
2018-11-05T07:05:01.442Z,9.00
2018-11-05T07:07:29.166Z,9.00
2018-11-05T07:09:56.917Z,9.00
2018-11-05T07:12:24.676Z,9.00
2018-11-05T07:14:52.471Z,8.90
2018-11-05T07:17:20.198Z,8.90
2018-11-05T07:19:47.991Z,9.00
2018-11-05T07:22:15.692Z,9.10
2018-11-05T07:24:43.430Z,9.00
2018-11-05T07:27:11.206Z,9.00
2018-11-05T07:29:39.570Z,8.90
2018-11-05T07:32:07.347Z,9.00
2018-11-05T07:34:35.150Z,9.00
2018-11-05T07:37:03.097Z,9.10
2018-11-05T07:39:31.301Z,9.10
2018-11-05T07:41:59.053Z,9.10
2018-11-05T07:44:26.754Z,9.10
2018-11-05T07:46:54.489Z,9.10
2018-11-05T07:49:22.185Z,9.00
2018-11-05T07:51:49.922Z,9.00
2018-11-05T07:54:18.079Z,9.10
2018-11-05T07:56:45.854Z,9.10
2018-11-05T07:59:14.162Z,9.20
2018-11-05T08:01:41.914Z,9.10
2018-11-05T08:04:09.633Z,9.10
2018-11-05T08:06:37.402Z,9.20
2018-11-05T08:09:07.010Z,9.30
2018-11-05T08:11:34.745Z,9.40
2018-11-05T08:14:02.485Z,9.40
2018-11-05T08:16:30.709Z,9.40
2018-11-05T08:18:58.442Z,9.20
2018-11-05T08:21:26.188Z,9.10
2018-11-05T08:23:54.845Z,9.10
2018-11-05T08:26:23.158Z,9.00
2018-11-05T08:28:51.319Z,9.10
2018-11-05T08:31:19.182Z,9.10
2018-11-05T08:33:48.041Z,9.00
2018-11-05T08:36:16.955Z,8.90
2018-11-05T08:38:46.165Z,9.10
2018-11-05T08:41:13.934Z,9.20
2018-11-05T08:43:42.868Z,9.20
2018-11-05T08:46:12.116Z,9.20
2018-11-05T08:48:41.512Z,9.20
2018-11-05T08:51:11.012Z,9.30
2018-11-05T08:53:38.632Z,9.20
2018-11-05T08:56:07.797Z,9.20
2018-11-05T08:58:35.589Z,9.30
2018-11-05T09:01:09.284Z,9.30
2018-11-05T09:03:36.913Z,9.30
2018-11-05T09:06:04.681Z,9.40
2018-11-05T09:08:33.351Z,9.40
2018-11-05T09:11:01.435Z,9.30
2018-11-05T09:13:28.926Z,9.30
2018-11-05T09:15:56.691Z,9.40
2018-11-05T09:18:25.869Z,9.50
2018-11-05T09:20:55.178Z,9.50
2018-11-05T09:23:24.153Z,9.50
2018-11-05T09:25:53.073Z,9.60
2018-11-05T09:28:22.163Z,9.60
2018-11-05T09:30:50.307Z,9.70
2018-11-05T09:33:18.066Z,9.40
2018-11-05T09:35:45.788Z,9.50
2018-11-05T09:38:13.517Z,9.40
2018-11-05T09:40:41.218Z,9.60
2018-11-05T09:43:08.957Z,9.70
2018-11-05T09:45:36.657Z,9.90
2018-11-05T09:48:04.382Z,9.80
2018-11-05T09:50:32.283Z,9.60
2018-11-05T09:53:00.015Z,9.70
2018-11-05T09:55:27.774Z,9.80
2018-11-05T09:57:55.498Z,10.00
2018-11-05T10:00:25.350Z,9.90
2018-11-05T10:02:58.692Z,9.90
2018-11-05T10:05:26.329Z,9.80
2018-11-05T10:07:54.145Z,9.90
2018-11-05T10:10:21.944Z,10.00
2018-11-05T10:12:49.657Z,10.10
2018-11-05T10:15:18.205Z,9.90
2018-11-05T10:17:45.928Z,10.00
2018-11-05T10:20:18.378Z,10.00
2018-11-05T10:22:46.526Z,10.10
2018-11-05T10:25:14.816Z,10.20
2018-11-05T10:27:42.514Z,10.10
2018-11-05T10:30:11.873Z,10.10
2018-11-05T10:32:39.932Z,9.90
2018-11-05T10:35:07.669Z,10.20
2018-11-05T10:37:35.373Z,10.30
2018-11-05T10:40:03.287Z,10.30
2018-11-05T10:42:31.017Z,10.20
2018-11-05T10:44:58.753Z,10.20
2018-11-05T10:47:26.470Z,10.20
2018-11-05T10:49:54.234Z,10.40
2018-11-05T10:52:22.513Z,10.50
2018-11-05T10:54:50.282Z,10.60
2018-11-05T10:57:17.998Z,10.60
2018-11-05T10:59:45.763Z,10.30
2018-11-05T11:02:18.870Z,10.40
2018-11-05T11:04:46.697Z,10.40
2018-11-05T11:07:14.406Z,10.40
2018-11-05T11:09:42.285Z,10.60
2018-11-05T11:12:09.886Z,10.40
2018-11-05T11:14:37.638Z,10.30
2018-11-05T11:17:05.509Z,10.50
2018-11-05T11:19:33.217Z,10.60
2018-11-05T11:22:01.008Z,10.40
2018-11-05T11:24:28.721Z,10.20
2018-11-05T11:26:56.458Z,10.70
2018-11-05T11:29:24.322Z,10.80
2018-11-05T11:31:51.949Z,11.00
2018-11-05T11:34:19.677Z,11.10
2018-11-05T11:36:47.552Z,11.20
2018-11-05T11:39:15.181Z,11.50
2018-11-05T11:41:42.974Z,11.10
2018-11-05T11:44:10.690Z,10.70
2018-11-05T11:46:38.696Z,11.00
2018-11-05T11:49:07.382Z,11.20
2018-11-05T11:51:35.129Z,11.60
2018-11-05T11:54:02.856Z,11.70
2018-11-05T11:56:30.630Z,11.70
2018-11-05T11:58:58.360Z,11.70
2018-11-05T12:01:26.093Z,11.80
2018-11-05T12:03:53.825Z,11.80
2018-11-05T12:06:21.546Z,12.10
2018-11-05T12:08:49.478Z,12.20
2018-11-05T12:11:17.213Z,12.10
2018-11-05T12:13:44.949Z,12.10
2018-11-05T12:16:12.678Z,12.00
2018-11-05T12:18:40.845Z,12.40
2018-11-05T12:21:08.613Z,12.50
2018-11-05T12:23:36.395Z,12.20
2018-11-05T12:26:04.630Z,12.10
2018-11-05T12:28:32.406Z,12.30
2018-11-05T12:31:00.144Z,12.40
2018-11-05T12:33:27.915Z,12.00
2018-11-05T12:35:55.667Z,12.20
2018-11-05T12:38:23.426Z,12.50
2018-11-05T12:40:51.162Z,12.60
2018-11-05T12:43:19.483Z,12.40
2018-11-05T12:45:47.230Z,12.10
2018-11-05T12:48:15.001Z,12.10
2018-11-05T12:50:42.779Z,12.00
2018-11-05T12:53:10.558Z,11.90
2018-11-05T12:55:38.285Z,12.00
2018-11-05T12:58:06.090Z,12.20
2018-11-05T13:00:34.588Z,11.90
2018-11-05T13:03:02.365Z,12.10
2018-11-05T13:05:31.361Z,12.00
2018-11-05T13:07:59.065Z,12.00
2018-11-05T13:10:26.834Z,11.90
2018-11-05T13:12:54.565Z,12.10
2018-11-05T13:15:22.385Z,12.20
2018-11-05T13:17:50.091Z,11.60
2018-11-05T13:20:19.026Z,11.50
2018-11-05T13:22:47.028Z,11.70
2018-11-05T13:25:14.989Z,12.10
2018-11-05T13:27:44.023Z,12.00
2018-11-05T13:30:12.542Z,12.10
2018-11-05T13:32:40.673Z,12.00
2018-11-05T13:35:10.037Z,12.30
2018-11-05T13:37:38.204Z,12.20
2018-11-05T13:40:06.502Z,12.00
2018-11-05T13:42:34.634Z,12.10
2018-11-05T13:45:03.082Z,12.20
2018-11-05T13:47:31.567Z,12.40
2018-11-05T13:49:58.873Z,12.50
2018-11-05T13:52:26.354Z,12.50
2018-11-05T13:54:54.408Z,12.70
2018-11-05T13:57:22.274Z,12.50
2018-11-05T13:59:49.984Z,12.30
2018-11-05T14:02:17.818Z,12.30
2018-11-05T14:04:45.480Z,12.60
2018-11-05T14:07:13.247Z,12.70
2018-11-05T14:09:40.967Z,12.80
2018-11-05T14:12:08.783Z,12.60
2018-11-05T14:14:36.894Z,12.40
2018-11-05T14:17:04.726Z,12.70
2018-11-05T14:19:32.444Z,12.90
2018-11-05T14:22:00.185Z,12.80
2018-11-05T14:24:27.894Z,12.70
2018-11-05T14:26:55.638Z,12.70
2018-11-05T14:29:23.878Z,12.80
2018-11-05T14:31:51.186Z,12.70
2018-11-05T14:34:18.984Z,12.70
2018-11-05T14:36:47.043Z,12.30
2018-11-05T14:39:15.013Z,12.40
2018-11-05T14:41:43.118Z,12.40
2018-11-05T14:44:12.678Z,12.40
2018-11-05T14:46:41.964Z,12.50
2018-11-05T14:49:11.098Z,12.50
2018-11-05T14:51:38.902Z,12.60
2018-11-05T14:54:06.613Z,12.40
2018-11-05T14:56:34.382Z,12.20
2018-11-05T14:59:02.129Z,12.20
2018-11-05T15:01:30.317Z,12.20
2018-11-05T15:03:58.087Z,12.10
2018-11-05T15:06:25.801Z,12.00
2018-11-05T15:08:53.576Z,11.80
2018-11-05T15:11:21.315Z,11.70
2018-11-05T15:13:49.063Z,11.50
2018-11-05T15:16:16.863Z,11.30
2018-11-05T15:18:45.161Z,11.00
2018-11-05T15:21:12.600Z,10.90
2018-11-05T15:23:40.381Z,10.90
2018-11-05T15:26:08.332Z,10.90
2018-11-05T15:28:36.181Z,10.70
2018-11-05T15:31:04.009Z,10.50
2018-11-05T15:33:32.085Z,10.50
2018-11-05T15:35:59.826Z,10.50
2018-11-05T15:38:27.537Z,10.40
2018-11-05T15:40:55.346Z,10.30
2018-11-05T15:43:23.081Z,10.20
2018-11-05T15:45:51.663Z,10.00
2018-11-05T15:48:19.534Z,9.90
2018-11-05T15:50:48.613Z,9.80
2018-11-05T15:53:18.281Z,9.80
2018-11-05T15:55:45.656Z,9.80
2018-11-05T15:58:13.378Z,9.80
2018-11-05T16:00:41.275Z,9.70
2018-11-05T16:03:09.009Z,9.60
2018-11-05T16:05:36.840Z,9.50
2018-11-05T16:08:05.557Z,9.40
2018-11-05T16:10:33.344Z,9.30
2018-11-05T16:13:01.046Z,9.20
2018-11-05T16:15:28.781Z,9.20
2018-11-05T16:17:56.744Z,9.00
2018-11-05T16:20:24.533Z,8.90
2018-11-05T16:22:52.749Z,8.80
2018-11-05T16:25:20.524Z,8.70
2018-11-05T16:27:48.309Z,8.80
2018-11-05T16:30:18.200Z,8.70
2018-11-05T16:32:46.698Z,8.70
2018-11-05T16:35:14.481Z,8.60
2018-11-05T16:37:42.764Z,8.40
2018-11-05T16:40:12.342Z,8.40
2018-11-05T16:42:40.326Z,8.30
2018-11-05T16:45:09.102Z,8.20
2018-11-05T16:47:37.470Z,8.10
2018-11-05T16:50:07.137Z,8.10
2018-11-05T16:52:34.869Z,8.10
2018-11-05T16:55:02.581Z,8.00
2018-11-05T16:57:30.385Z,8.00
2018-11-05T16:59:58.085Z,7.90
2018-11-05T17:02:26.166Z,7.70
2018-11-05T17:04:53.957Z,7.70
2018-11-05T17:07:22.301Z,7.70
2018-11-05T17:09:50.025Z,7.60
2018-11-05T17:12:17.805Z,7.50
2018-11-05T17:14:45.642Z,7.50
2018-11-05T17:17:13.386Z,7.50
2018-11-05T17:19:41.142Z,7.40
2018-11-05T17:22:08.861Z,7.40
2018-11-05T17:24:36.597Z,7.40
2018-11-05T17:27:04.333Z,7.40
2018-11-05T17:29:32.105Z,7.40
2018-11-05T17:31:59.818Z,7.30
2018-11-05T17:34:27.583Z,7.30
2018-11-05T17:36:55.304Z,7.30
2018-11-05T17:39:23.030Z,7.30
2018-11-05T17:41:51.684Z,7.20
2018-11-05T17:44:20.881Z,7.10
2018-11-05T17:46:48.601Z,7.10
2018-11-05T17:49:16.310Z,7.10
2018-11-05T17:51:44.046Z,7.00
2018-11-05T17:54:11.758Z,7.00
2018-11-05T17:56:39.869Z,6.90
2018-11-05T17:59:07.671Z,6.90
2018-11-05T18:01:35.439Z,6.90
2018-11-05T18:04:03.178Z,6.80
2018-11-05T18:06:31.441Z,6.80
2018-11-05T18:08:59.817Z,6.80
2018-11-05T18:11:27.522Z,6.80
2018-11-05T18:13:55.230Z,6.70
2018-11-05T18:16:22.998Z,6.70
2018-11-05T18:18:50.737Z,6.70
2018-11-05T18:21:18.754Z,6.60
2018-11-05T18:25:37.994Z,6.60
2018-11-05T18:28:06.036Z,6.60
2018-11-05T18:30:33.788Z,6.60
2018-11-05T18:33:01.497Z,6.60
2018-11-05T18:35:30.055Z,6.60
2018-11-05T18:37:58.324Z,6.60
2018-11-05T18:40:25.990Z,6.60
2018-11-05T18:42:53.807Z,6.60
2018-11-05T18:45:21.559Z,6.50
2018-11-05T18:47:49.506Z,6.50
2018-11-05T18:50:18.709Z,6.50
2018-11-05T18:52:48.371Z,6.50
2018-11-05T18:55:18.214Z,6.50
2018-11-05T18:57:48.264Z,6.40
2018-11-05T19:00:31.322Z,6.40
2018-11-05T19:03:00.266Z,6.40
2018-11-05T19:05:30.762Z,6.30
2018-11-05T19:07:59.291Z,6.40
2018-11-05T19:10:28.709Z,6.40
2018-11-05T19:12:56.540Z,6.40
2018-11-05T19:15:24.957Z,6.40
2018-11-05T19:17:53.762Z,6.40
2018-11-05T19:20:22.220Z,6.40
2018-11-05T19:22:50.856Z,6.30
2018-11-05T19:25:19.395Z,6.30
2018-11-05T19:27:47.964Z,6.20
2018-11-05T19:30:18.960Z,6.20
2018-11-05T19:32:48.102Z,6.20
2018-11-05T19:35:35.476Z,6.20
2018-11-05T19:38:07.500Z,6.20
2018-11-05T19:40:35.403Z,6.20
2018-11-05T19:43:04.561Z,6.20
2018-11-05T19:45:33.598Z,6.20
2018-11-05T19:48:02.155Z,6.20
2018-11-05T19:50:30.821Z,6.20
2018-11-05T19:52:59.875Z,6.10
2018-11-05T19:55:28.992Z,6.10
2018-11-05T19:57:56.755Z,6.10
2018-11-05T20:00:25.756Z,6.00
2018-11-05T20:02:53.877Z,6.00
2018-11-05T20:05:21.611Z,6.00
2018-11-05T20:07:50.968Z,6.00
2018-11-05T20:10:19.897Z,6.00
2018-11-05T20:12:48.185Z,6.10
2018-11-05T20:15:16.401Z,6.10
2018-11-05T20:17:45.608Z,6.00
2018-11-05T20:20:17.613Z,6.00
2018-11-05T20:22:45.397Z,6.00
2018-11-05T20:25:13.337Z,6.00
2018-11-05T20:27:41.634Z,6.00
2018-11-05T20:30:10.357Z,6.00
2018-11-05T20:32:39.081Z,5.90
2018-11-05T20:35:06.722Z,5.90
2018-11-05T20:37:34.455Z,5.80
2018-11-05T20:40:02.434Z,5.70
2018-11-05T20:42:30.059Z,5.70
2018-11-05T20:44:57.801Z,5.70
2018-11-05T20:47:25.526Z,5.60
2018-11-05T20:49:53.270Z,5.60
2018-11-05T20:52:22.320Z,5.60
2018-11-05T20:54:50.487Z,5.50
2018-11-05T20:57:18.762Z,5.50
2018-11-05T20:59:46.498Z,5.50
2018-11-05T21:02:14.223Z,5.50
2018-11-05T21:04:42.990Z,5.50
2018-11-05T21:07:10.956Z,5.40
2018-11-05T21:09:38.813Z,5.30
2018-11-05T21:12:06.588Z,5.40
2018-11-05T21:14:34.426Z,5.50
2018-11-05T21:17:02.143Z,5.50
2018-11-05T21:19:29.891Z,5.50
2018-11-05T21:21:57.978Z,5.50
2018-11-05T21:24:26.041Z,5.40
2018-11-05T21:26:53.826Z,5.40
2018-11-05T21:29:21.519Z,5.50
2018-11-05T21:31:49.314Z,5.40
2018-11-05T21:34:17.022Z,5.40
2018-11-05T21:36:44.790Z,5.40
2018-11-05T21:39:13.141Z,5.40
2018-11-05T21:41:40.906Z,5.50
2018-11-05T21:44:09.243Z,5.30
2018-11-05T21:46:37.149Z,5.20
2018-11-05T21:49:05.210Z,5.20
2018-11-05T21:51:32.990Z,5.20
2018-11-05T21:54:00.721Z,5.20
2018-11-05T21:56:28.466Z,5.20
2018-11-05T21:58:56.357Z,5.20
2018-11-05T22:01:25.490Z,5.30
2018-11-05T22:03:54.538Z,5.30
2018-11-05T22:06:22.653Z,5.40
2018-11-05T22:08:50.376Z,5.30
2018-11-05T22:11:18.148Z,5.40
2018-11-05T22:13:45.914Z,5.30
2018-11-05T22:16:13.657Z,5.30
2018-11-05T22:18:41.397Z,5.40
2018-11-05T22:21:09.142Z,5.40
2018-11-05T22:23:36.874Z,5.30
2018-11-05T22:26:04.705Z,5.30
2018-11-05T22:28:32.478Z,5.20
2018-11-05T22:31:00.181Z,5.20
2018-11-05T22:33:27.950Z,5.20
2018-11-05T22:35:55.691Z,5.20
2018-11-05T22:38:23.458Z,5.20
2018-11-05T22:40:51.812Z,5.00
2018-11-05T22:43:19.602Z,5.00
2018-11-05T22:45:47.314Z,5.00
2018-11-05T22:48:15.054Z,4.90
2018-11-05T22:50:42.783Z,5.00
2018-11-05T22:53:10.513Z,5.20
2018-11-05T22:55:38.233Z,5.20
2018-11-05T22:58:06.211Z,5.20
2018-11-05T23:00:39.398Z,5.20
2018-11-05T23:03:12.978Z,5.30
2018-11-05T23:05:40.680Z,5.30
2018-11-05T23:08:08.462Z,5.40
2018-11-05T23:10:36.317Z,5.30
2018-11-05T23:13:04.330Z,5.30
2018-11-05T23:15:32.079Z,5.10
2018-11-05T23:17:59.828Z,5.00
2018-11-05T23:20:27.550Z,5.10
2018-11-05T23:22:56.337Z,5.10
2018-11-05T23:25:24.081Z,5.00
2018-11-05T23:27:51.850Z,5.00
2018-11-05T23:30:19.617Z,5.00
2018-11-05T23:32:47.369Z,4.90
2018-11-05T23:35:15.129Z,5.00
2018-11-05T23:37:42.857Z,5.00
2018-11-05T23:40:10.626Z,4.90
2018-11-05T23:42:39.018Z,4.90
2018-11-05T23:45:07.929Z,4.80
2018-11-05T23:47:35.854Z,4.80
2018-11-05T23:50:03.685Z,4.80
2018-11-05T23:52:31.417Z,4.90
2018-11-05T23:54:59.192Z,4.70
2018-11-05T23:57:26.905Z,4.80
2018-11-05T23:59:54.638Z,4.80
